createdAt,value
2023-03-26T00:02:01.460Z,3.39
2023-03-26T00:05:06.790Z,2.99
2023-03-26T00:08:13.585Z,3.50
2023-03-26T00:11:19.651Z,3.99
2023-03-26T00:14:27.456Z,3.80
2023-03-26T00:17:31.858Z,3.96
2023-03-26T00:20:40.792Z,4.21
2023-03-26T00:23:50.108Z,4.68
2023-03-26T00:26:54.824Z,4.80
2023-03-26T00:30:00.624Z,5.10
2023-03-26T00:33:09.601Z,5.10
2023-03-26T00:36:20.872Z,5.33
2023-03-26T00:39:26.548Z,5.24
2023-03-26T00:42:31.055Z,5.35
2023-03-26T00:45:37.741Z,5.63
2023-03-26T00:48:46.025Z,5.57
2023-03-26T00:51:56.763Z,6.17
2023-03-26T00:55:01.348Z,6.60
2023-03-26T00:58:13.372Z,6.73
2023-03-26T01:01:23.259Z,6.86
2023-03-26T01:04:35.430Z,6.83
2023-03-26T01:07:43.589Z,7.17
2023-03-26T01:10:51.692Z,7.46
2023-03-26T01:14:00.768Z,7.87
2023-03-26T01:17:07.529Z,7.59
2023-03-26T01:20:27.322Z,7.89
2023-03-26T01:23:47.315Z,7.96
2023-03-26T01:27:30.143Z,8.04
2023-03-26T01:30:50.219Z,8.19
2023-03-26T01:34:05.075Z,8.18
2023-03-26T01:37:31.328Z,8.40
2023-03-26T01:40:43.577Z,8.42
2023-03-26T01:44:35.256Z,6.97
2023-03-26T01:47:42.961Z,7.02
2023-03-26T01:50:52.145Z,6.70
2023-03-26T01:53:57.749Z,5.62
2023-03-26T01:57:19.837Z,4.98
2023-03-26T02:00:34.821Z,5.17
2023-03-26T02:03:52.813Z,5.88
2023-03-26T02:07:06.819Z,5.36
2023-03-26T02:10:21.890Z,4.89
2023-03-26T02:13:27.473Z,4.52
2023-03-26T02:16:31.572Z,5.31
2023-03-26T02:19:36.684Z,5.77
2023-03-26T02:22:42.122Z,6.01
2023-03-26T02:25:47.971Z,6.68
2023-03-26T02:28:52.077Z,6.46
2023-03-26T02:31:56.636Z,6.14
2023-03-26T02:35:02.116Z,5.67
2023-03-26T02:38:07.531Z,5.14
2023-03-26T02:41:12.125Z,4.91
2023-03-26T02:44:42.719Z,5.05
2023-03-26T02:47:51.868Z,5.02
2023-03-26T02:51:21.952Z,4.99
2023-03-26T02:54:39.157Z,4.93
2023-03-26T02:58:02.653Z,5.13
2023-03-26T03:01:14.225Z,5.22
2023-03-26T03:04:26.581Z,5.26
2023-03-26T03:07:30.955Z,5.34
2023-03-26T03:10:40.056Z,5.22
2023-03-26T03:13:58.738Z,5.43
2023-03-26T03:17:06.167Z,5.43
2023-03-26T03:20:22.716Z,5.18
2023-03-26T03:23:27.405Z,4.75
2023-03-26T03:26:43.404Z,4.85
2023-03-26T03:30:07.884Z,4.92
2023-03-26T03:33:33.218Z,4.72
2023-03-26T03:36:41.260Z,4.85
2023-03-26T03:40:00.692Z,4.60
2023-03-26T03:43:09.381Z,4.72
2023-03-26T03:46:21.807Z,4.79
2023-03-26T03:49:31.377Z,4.31
2023-03-26T03:52:38.916Z,4.24
2023-03-26T03:55:55.128Z,3.99
2023-03-26T03:59:03.562Z,4.16
2023-03-26T04:02:12.484Z,4.41
2023-03-26T04:05:24.419Z,4.32
2023-03-26T04:08:30.089Z,4.53
2023-03-26T04:11:38.830Z,4.88
2023-03-26T04:15:02.932Z,5.27
2023-03-26T04:18:11.424Z,5.00
2023-03-26T04:21:25.880Z,4.79
2023-03-26T04:24:39.169Z,5.01
2023-03-26T04:28:07.629Z,4.95
2023-03-26T04:31:46.056Z,5.39
2023-03-26T04:34:51.923Z,5.54
2023-03-26T04:38:07.300Z,5.82
2023-03-26T04:41:21.129Z,5.97
2023-03-26T04:44:32.518Z,5.84
2023-03-26T04:47:41.481Z,5.96
2023-03-26T04:50:47.141Z,5.86
2023-03-26T04:54:00.583Z,5.87
2023-03-26T04:57:14.873Z,6.10
2023-03-26T05:00:42.699Z,6.06
2023-03-26T05:03:46.918Z,6.05
2023-03-26T05:06:56.671Z,6.19
2023-03-26T05:10:23.607Z,5.92
2023-03-26T05:13:35.784Z,5.51
2023-03-26T05:16:49.278Z,5.85
2023-03-26T05:19:54.074Z,5.92
2023-03-26T05:22:58.567Z,6.24
2023-03-26T05:26:25.549Z,6.32
2023-03-26T05:29:29.710Z,6.63
2023-03-26T05:32:34.803Z,6.70
2023-03-26T05:35:39.325Z,6.36
2023-03-26T05:38:50.313Z,6.40
2023-03-26T05:42:17.946Z,5.72
2023-03-26T05:45:57.509Z,5.79
2023-03-26T05:49:05.321Z,5.09
2023-03-26T05:52:15.998Z,5.24
2023-03-26T05:55:41.326Z,5.40
2023-03-26T05:59:03.631Z,5.51
2023-03-26T06:02:26.496Z,5.62
2023-03-26T06:06:11.722Z,5.62
2023-03-26T06:09:23.782Z,5.50
2023-03-26T06:12:28.994Z,5.49
2023-03-26T06:15:33.322Z,5.68
2023-03-26T06:18:41.245Z,4.77
2023-03-26T06:22:06.243Z,5.17
2023-03-26T06:25:26.976Z,5.48
2023-03-26T06:28:44.910Z,5.12
2023-03-26T06:32:19.183Z,5.14
2023-03-26T06:35:39.269Z,5.07
2023-03-26T06:38:43.632Z,5.22
2023-03-26T06:41:50.036Z,5.09
2023-03-26T06:45:15.963Z,5.18
2023-03-26T06:48:52.914Z,5.24
2023-03-26T06:52:15.756Z,5.15
2023-03-26T06:55:28.451Z,5.17
2023-03-26T06:58:49.401Z,4.63
2023-03-26T07:02:17.333Z,4.03
2023-03-26T07:05:42.490Z,4.31
2023-03-26T07:09:05.417Z,4.31
2023-03-26T07:12:16.657Z,4.49
2023-03-26T07:15:59.782Z,4.17
2023-03-26T07:19:39.185Z,4.22
2023-03-26T07:22:43.786Z,4.24
2023-03-26T07:25:53.875Z,4.51
2023-03-26T07:29:46.880Z,4.47
2023-03-26T07:33:19.524Z,4.46
2023-03-26T07:37:17.104Z,4.15
2023-03-26T07:41:20.182Z,4.50
2023-03-26T07:44:54.908Z,4.03
2023-03-26T07:48:30.385Z,4.17
2023-03-26T07:51:55.251Z,4.22
2023-03-26T07:55:20.617Z,3.96
2023-03-26T07:59:27.904Z,3.99
2023-03-26T08:03:00.398Z,4.16
2023-03-26T08:06:41.300Z,4.01
2023-03-26T08:10:00.864Z,3.83
2023-03-26T08:13:31.825Z,3.86
2023-03-26T08:17:05.901Z,4.17
2023-03-26T08:20:21.703Z,3.59
2023-03-26T08:23:50.735Z,3.75
2023-03-26T08:27:03.604Z,3.85
2023-03-26T08:30:19.391Z,3.84
2023-03-26T08:33:27.866Z,3.61
2023-03-26T08:36:32.682Z,3.43
2023-03-26T08:39:39.638Z,3.52
2023-03-26T08:43:07.324Z,3.68
2023-03-26T08:46:16.602Z,3.76
2023-03-26T08:49:32.710Z,3.74
2023-03-26T08:52:53.441Z,3.22
2023-03-26T08:56:13.885Z,3.18
2023-03-26T08:59:46.625Z,3.54
2023-03-26T09:03:16.977Z,3.48
2023-03-26T09:06:39.278Z,3.48
2023-03-26T09:09:55.456Z,3.29
2023-03-26T09:13:08.707Z,3.02
2023-03-26T09:16:19.117Z,2.81
2023-03-26T09:19:43.356Z,2.54
2023-03-26T09:23:14.652Z,2.54
2023-03-26T09:26:31.782Z,2.53
2023-03-26T09:29:57.833Z,2.34
2023-03-26T09:33:18.011Z,1.68
2023-03-26T09:36:31.167Z,1.81
2023-03-26T09:39:45.917Z,1.97
2023-03-26T09:42:54.946Z,2.07
2023-03-26T09:46:12.482Z,1.67
2023-03-26T09:49:25.561Z,1.68
2023-03-26T09:52:48.107Z,1.65
2023-03-26T09:56:05.258Z,1.05
2023-03-26T09:59:39.693Z,1.20
2023-03-26T10:03:07.023Z,1.39
2023-03-26T10:06:38.758Z,1.26
2023-03-26T10:10:01.518Z,1.17
2023-03-26T10:13:25.472Z,1.38
2023-03-26T10:17:03.896Z,1.11
2023-03-26T10:20:20.817Z,0.16
2023-03-26T10:23:58.572Z,0.06
2023-03-26T10:27:17.651Z,-0.20
2023-03-26T10:30:56.745Z,-0.30
2023-03-26T10:34:38.247Z,-0.29
2023-03-26T10:38:01.512Z,-0.45
2023-03-26T10:41:22.551Z,-0.48
2023-03-26T10:45:00.268Z,-0.48
2023-03-26T10:48:15.399Z,-0.43
2023-03-26T10:51:25.512Z,-0.63
2023-03-26T10:55:04.971Z,-0.62
2023-03-26T10:58:48.713Z,-0.50
2023-03-26T11:02:17.143Z,-0.28
2023-03-26T11:05:47.343Z,-0.36
2023-03-26T11:09:19.636Z,-0.27
2023-03-26T11:12:33.152Z,-0.06
2023-03-26T11:15:47.951Z,0.05
2023-03-26T11:19:18.265Z,0.03
2023-03-26T11:22:28.498Z,0.28
2023-03-26T11:26:00.379Z,0.28
2023-03-26T11:29:31.033Z,-0.01
2023-03-26T11:33:01.780Z,0.11
2023-03-26T11:36:17.588Z,0.29
2023-03-26T11:39:28.061Z,0.10
2023-03-26T11:42:32.278Z,0.12
2023-03-26T11:45:40.120Z,0.23
2023-03-26T11:48:54.271Z,-0.07
2023-03-26T11:51:59.974Z,0.19
2023-03-26T11:55:04.338Z,0.36
2023-03-26T11:58:32.603Z,0.42
2023-03-26T12:01:59.513Z,0.52
2023-03-26T12:05:17.291Z,0.47
2023-03-26T12:08:33.331Z,0.48
2023-03-26T12:11:40.259Z,0.57
2023-03-26T12:14:45.600Z,0.61
2023-03-26T12:17:54.396Z,0.67
2023-03-26T12:21:28.387Z,0.84
2023-03-26T12:24:35.137Z,0.70
2023-03-26T12:27:45.718Z,0.71
2023-03-26T12:31:09.148Z,0.53
2023-03-26T12:34:21.910Z,0.48
2023-03-26T12:37:41.053Z,0.46
2023-03-26T12:40:45.992Z,0.18
2023-03-26T12:44:52.814Z,0.07
2023-03-26T12:47:57.381Z,0.06
2023-03-26T12:51:04.902Z,0.38
2023-03-26T12:54:38.135Z,0.07
2023-03-26T12:58:13.669Z,0.19
2023-03-26T13:01:46.652Z,-0.16
2023-03-26T13:05:09.412Z,0.25
2023-03-26T13:08:44.429Z,0.25
2023-03-26T13:12:35.287Z,0.32
2023-03-26T13:16:02.818Z,-0.05
2023-03-26T13:19:28.004Z,0.32
2023-03-26T13:23:24.472Z,0.17
2023-03-26T13:26:46.919Z,0.08
2023-03-26T13:30:32.067Z,0.12
2023-03-26T13:34:08.577Z,0.36
2023-03-26T13:37:47.404Z,0.12
2023-03-26T13:40:58.355Z,0.31
2023-03-26T13:44:17.677Z,0.27
2023-03-26T13:47:27.248Z,0.09
2023-03-26T13:50:42.151Z,-0.53
2023-03-26T13:53:56.145Z,-0.35
2023-03-26T13:57:08.540Z,-0.46
2023-03-26T14:00:19.148Z,-0.46
2023-03-26T14:03:46.151Z,-0.94
2023-03-26T14:06:58.056Z,-1.09
2023-03-26T14:10:16.714Z,-0.67
2023-03-26T14:13:28.849Z,-1.11
2023-03-26T14:16:49.277Z,-1.24
2023-03-26T14:20:12.089Z,-1.29
2023-03-26T14:23:40.786Z,-1.56
2023-03-26T14:27:14.769Z,-1.70
2023-03-26T14:30:18.955Z,-1.80
2023-03-26T14:33:43.462Z,-1.94
2023-03-26T14:37:18.897Z,-1.92
2023-03-26T14:40:58.353Z,-1.87
2023-03-26T14:44:30.067Z,-1.87
2023-03-26T14:48:33.610Z,-1.90
2023-03-26T14:52:02.222Z,-2.07
2023-03-26T14:55:18.312Z,-2.28
2023-03-26T14:58:46.028Z,-2.12
2023-03-26T15:02:02.549Z,-2.04
2023-03-26T15:05:28.369Z,-2.07
2023-03-26T15:08:59.205Z,-2.26
2023-03-26T15:12:22.027Z,-2.36
2023-03-26T15:15:54.305Z,-2.55
2023-03-26T15:19:37.418Z,-2.47
2023-03-26T15:23:22.420Z,-2.57
2023-03-26T15:26:48.400Z,-2.40
2023-03-26T15:30:23.298Z,-2.38
2023-03-26T15:33:44.936Z,-2.69
2023-03-26T15:37:04.431Z,-2.57
2023-03-26T15:40:26.771Z,-2.46
2023-03-26T15:47:44.104Z,-2.50
2023-03-26T15:51:29.903Z,-3.81
2023-03-26T15:54:58.138Z,-2.28
2023-03-26T15:58:27.464Z,-2.46
2023-03-26T16:01:52.873Z,-2.40
2023-03-26T16:05:20.519Z,-2.43
2023-03-26T16:08:56.870Z,-2.09
2023-03-26T16:12:13.251Z,-1.92
2023-03-26T16:15:32.929Z,-2.10
2023-03-26T16:18:39.070Z,-2.02
2023-03-26T16:22:02.966Z,-2.27
2023-03-26T16:25:35.154Z,-1.85
2023-03-26T16:29:04.965Z,-2.05
2023-03-26T16:32:17.024Z,-1.91
2023-03-26T16:35:21.472Z,-2.03
2023-03-26T16:38:30.780Z,-2.13
2023-03-26T16:41:41.490Z,-2.17
2023-03-26T16:45:07.675Z,-2.17
2023-03-26T16:48:31.483Z,-2.09
2023-03-26T16:51:54.634Z,-2.42
2023-03-26T16:55:17.706Z,-2.43
2023-03-26T16:58:38.752Z,-2.38
2023-03-26T17:01:58.449Z,-2.44
2023-03-26T17:05:26.224Z,-2.64
2023-03-26T17:08:45.058Z,-2.27
2023-03-26T17:12:00.777Z,-2.57
2023-03-26T17:15:16.133Z,-2.65
2023-03-26T17:18:26.558Z,-2.76
2023-03-26T17:21:46.855Z,-2.70
2023-03-26T17:25:36.036Z,-2.69
2023-03-26T17:29:12.021Z,-2.82
2023-03-26T17:32:16.872Z,-3.09
2023-03-26T17:35:44.751Z,-2.94
2023-03-26T17:38:49.033Z,-2.72
2023-03-26T17:42:13.410Z,-2.46
2023-03-26T17:45:25.883Z,-2.87
2023-03-26T17:48:36.320Z,-2.95
2023-03-26T17:51:52.903Z,-3.01
2023-03-26T17:54:58.075Z,-3.15
2023-03-26T17:58:20.100Z,-2.99
2023-03-26T18:01:44.945Z,-3.30
2023-03-26T18:04:53.702Z,-3.24
2023-03-26T18:08:16.147Z,-3.07
2023-03-26T18:11:54.926Z,-3.06
2023-03-26T18:15:28.812Z,-3.08
2023-03-26T18:18:36.339Z,-2.79
2023-03-26T18:21:41.937Z,-2.64
2023-03-26T18:24:47.239Z,-3.26
2023-03-26T18:27:52.346Z,-3.27
2023-03-26T18:30:56.916Z,-3.24
2023-03-26T18:34:13.104Z,-3.19
2023-03-26T18:37:20.423Z,-3.15
2023-03-26T18:40:27.777Z,-3.12
2023-03-26T18:43:43.717Z,-3.18
2023-03-26T18:46:49.315Z,-3.38
2023-03-26T18:49:57.988Z,-3.44
2023-03-26T18:53:02.996Z,-3.45
2023-03-26T18:56:32.930Z,-3.22
2023-03-26T18:59:41.233Z,-3.09
2023-03-26T19:02:48.797Z,-3.68
2023-03-26T19:05:57.600Z,-3.45
2023-03-26T19:09:02.301Z,-3.62
2023-03-26T19:12:29.450Z,-3.76
2023-03-26T19:15:36.373Z,-3.34
2023-03-26T19:18:44.029Z,-3.78
2023-03-26T19:21:50.289Z,-3.75
2023-03-26T19:25:00.639Z,-3.74
2023-03-26T19:28:08.512Z,-3.89
2023-03-26T19:35:05.281Z,-4.13
2023-03-26T19:38:23.986Z,-3.95
2023-03-26T19:41:44.407Z,-4.44
2023-03-26T19:44:51.232Z,-4.56
2023-03-26T19:48:07.745Z,-4.54
2023-03-26T19:51:32.541Z,-4.26
2023-03-26T19:54:59.719Z,-4.16
2023-03-26T19:58:06.907Z,-4.27
2023-03-26T20:01:18.722Z,-4.49
2023-03-26T20:04:23.166Z,-4.25
2023-03-26T20:07:35.938Z,-4.30
2023-03-26T20:10:40.736Z,-4.65
2023-03-26T20:13:45.119Z,-4.53
2023-03-26T20:16:49.096Z,-4.63
2023-03-26T20:19:55.112Z,-4.49
2023-03-26T20:22:59.801Z,-4.72
2023-03-26T20:26:04.181Z,-4.92
2023-03-26T20:29:08.639Z,-4.52
2023-03-26T20:32:25.601Z,-4.74
2023-03-26T20:35:36.203Z,-4.68
2023-03-26T20:38:45.757Z,-4.91
2023-03-26T20:41:51.874Z,-4.65
2023-03-26T20:44:55.960Z,-4.59
2023-03-26T20:48:00.150Z,-4.87
2023-03-26T20:51:06.009Z,-5.14
2023-03-26T20:54:23.972Z,-4.52
2023-03-26T20:57:28.309Z,-4.57
2023-03-26T21:00:33.297Z,-4.46
2023-03-26T21:03:39.005Z,-4.66
2023-03-26T21:06:44.016Z,-4.63
2023-03-26T21:09:51.400Z,-4.72
2023-03-26T21:13:12.074Z,-4.21
2023-03-26T21:16:16.829Z,-4.34
2023-03-26T21:19:25.012Z,-4.26
2023-03-26T21:23:02.594Z,-3.96
2023-03-26T21:26:33.895Z,-3.61
2023-03-26T21:29:47.637Z,-3.37
2023-03-26T21:32:52.998Z,-3.26
2023-03-26T21:39:19.057Z,-2.97
2023-03-26T21:42:30.054Z,-2.49
2023-03-26T21:45:34.899Z,-1.54
2023-03-26T21:48:39.323Z,-0.93
2023-03-26T21:51:44.585Z,-0.15
2023-03-26T21:54:49.259Z,0.20
2023-03-26T21:58:05.396Z,0.33
2023-03-26T22:01:18.659Z,1.51
2023-03-26T22:04:25.247Z,2.04
2023-03-26T22:07:39.605Z,2.58
2023-03-26T22:10:43.992Z,4.12
2023-03-26T22:13:48.348Z,4.63
2023-03-26T22:16:52.319Z,6.14
2023-03-26T22:19:57.209Z,7.27
2023-03-26T22:23:02.591Z,7.58
2023-03-26T22:26:07.272Z,7.97
2023-03-26T22:29:11.294Z,8.68
2023-03-26T22:32:15.174Z,8.31
2023-03-26T22:35:19.871Z,9.20
2023-03-26T22:38:24.633Z,8.17
2023-03-26T22:41:30.577Z,7.64
2023-03-26T22:44:34.891Z,7.02
2023-03-26T22:47:39.259Z,7.15
2023-03-26T22:50:44.611Z,8.32
2023-03-26T22:53:48.973Z,8.12
2023-03-26T22:56:53.481Z,7.45
2023-03-26T22:59:59.378Z,7.39
2023-03-26T23:03:03.479Z,6.70
2023-03-26T23:06:10.701Z,6.50
2023-03-26T23:09:15.739Z,7.65
2023-03-26T23:12:20.340Z,7.96
2023-03-26T23:15:26.710Z,9.35
2023-03-26T23:18:31.352Z,10.39
2023-03-26T23:21:37.592Z,10.64
2023-03-26T23:24:41.506Z,10.46
2023-03-26T23:27:45.704Z,9.11
2023-03-26T23:30:54.922Z,8.91
2023-03-26T23:34:00.594Z,9.83
2023-03-26T23:37:05.519Z,9.83
2023-03-26T23:40:11.196Z,7.87
2023-03-26T23:43:16.119Z,8.18
2023-03-26T23:46:22.996Z,7.51
2023-03-26T23:49:28.065Z,8.08
2023-03-26T23:52:32.784Z,8.13
2023-03-26T23:55:37.204Z,8.39
2023-03-26T23:58:41.580Z,7.45
